sensor_id;sensor_type;location;lat;lon;timestamp;temperature;humidity
20795;DHT22;28087;-33.874;151.240;2023-01-29T00:02:06;27.50;99.90
20795;DHT22;28087;-33.874;151.240;2023-01-29T00:04:42;27.60;99.90
20795;DHT22;28087;-33.874;151.240;2023-01-29T00:07:18;27.60;99.90
20795;DHT22;28087;-33.874;151.240;2023-01-29T00:09:54;27.80;99.90
20795;DHT22;28087;-33.874;151.240;2023-01-29T00:12:31;28.00;99.90
20795;DHT22;28087;-33.874;151.240;2023-01-29T00:15:08;27.90;99.90
20795;DHT22;28087;-33.874;151.240;2023-01-29T00:17:44;27.80;99.90
20795;DHT22;28087;-33.874;151.240;2023-01-29T00:20:19;27.80;99.90
20795;DHT22;28087;-33.874;151.240;2023-01-29T00:22:55;27.60;99.90
20795;DHT22;28087;-33.874;151.240;2023-01-29T00:25:31;27.60;99.90
20795;DHT22;28087;-33.874;151.240;2023-01-29T00:28:09;27.70;99.90
20795;DHT22;28087;-33.874;151.240;2023-01-29T00:30:46;27.70;99.90
20795;DHT22;28087;-33.874;151.240;2023-01-29T00:33:21;27.90;99.90
20795;DHT22;28087;-33.874;151.240;2023-01-29T00:36:03;27.90;99.90
20795;DHT22;28087;-33.874;151.240;2023-01-29T00:38:39;27.90;99.90
20795;DHT22;28087;-33.874;151.240;2023-01-29T00:41:15;27.80;99.90
20795;DHT22;28087;-33.874;151.240;2023-01-29T00:44:09;27.90;99.90
20795;DHT22;28087;-33.874;151.240;2023-01-29T00:47:01;27.90;99.90
20795;DHT22;28087;-33.874;151.240;2023-01-29T00:49:57;28.00;99.90
20795;DHT22;28087;-33.874;151.240;2023-01-29T00:52:32;28.10;99.90
20795;DHT22;28087;-33.874;151.240;2023-01-29T00:55:09;28.10;99.90
20795;DHT22;28087;-33.874;151.240;2023-01-29T00:57:44;28.10;99.90
20795;DHT22;28087;-33.874;151.240;2023-01-29T01:00:22;28.10;99.90
20795;DHT22;28087;-33.874;151.240;2023-01-29T01:02:59;28.10;99.90
20795;DHT22;28087;-33.874;151.240;2023-01-29T01:05:38;28.20;99.90
20795;DHT22;28087;-33.874;151.240;2023-01-29T01:08:14;28.30;99.90
20795;DHT22;28087;-33.874;151.240;2023-01-29T01:11:06;28.40;99.90
20795;DHT22;28087;-33.874;151.240;2023-01-29T01:13:41;28.50;99.90
20795;DHT22;28087;-33.874;151.240;2023-01-29T01:16:18;28.50;99.90
20795;DHT22;28087;-33.874;151.240;2023-01-29T01:18:54;28.30;99.90
20795;DHT22;28087;-33.874;151.240;2023-01-29T01:21:33;28.30;99.90
20795;DHT22;28087;-33.874;151.240;2023-01-29T01:24:09;28.30;99.90
20795;DHT22;28087;-33.874;151.240;2023-01-29T01:26:44;28.40;99.90
20795;DHT22;28087;-33.874;151.240;2023-01-29T01:29:20;28.40;99.90
20795;DHT22;28087;-33.874;151.240;2023-01-29T01:31:58;28.30;99.90
20795;DHT22;28087;-33.874;151.240;2023-01-29T01:34:34;28.20;99.90
20795;DHT22;28087;-33.874;151.240;2023-01-29T01:37:09;28.20;99.90
20795;DHT22;28087;-33.874;151.240;2023-01-29T01:39:44;28.30;99.90
20795;DHT22;28087;-33.874;151.240;2023-01-29T01:42:21;28.30;99.90
20795;DHT22;28087;-33.874;151.240;2023-01-29T01:45:02;28.30;99.90
20795;DHT22;28087;-33.874;151.240;2023-01-29T01:47:42;28.20;99.90
20795;DHT22;28087;-33.874;151.240;2023-01-29T01:50:22;28.10;99.90
20795;DHT22;28087;-33.874;151.240;2023-01-29T01:53:03;28.10;99.90
20795;DHT22;28087;-33.874;151.240;2023-01-29T01:55:42;28.00;99.90
20795;DHT22;28087;-33.874;151.240;2023-01-29T01:58:23;27.90;99.90
20795;DHT22;28087;-33.874;151.240;2023-01-29T02:01:01;27.80;99.90
20795;DHT22;28087;-33.874;151.240;2023-01-29T02:03:42;27.70;99.90
20795;DHT22;28087;-33.874;151.240;2023-01-29T02:06:37;27.70;99.90
20795;DHT22;28087;-33.874;151.240;2023-01-29T02:09:33;27.80;99.90
20795;DHT22;28087;-33.874;151.240;2023-01-29T02:12:12;27.80;99.90
20795;DHT22;28087;-33.874;151.240;2023-01-29T02:14:48;27.80;99.90
20795;DHT22;28087;-33.874;151.240;2023-01-29T02:17:25;27.80;99.90
20795;DHT22;28087;-33.874;151.240;2023-01-29T02:20:05;27.90;99.90
20795;DHT22;28087;-33.874;151.240;2023-01-29T02:23:07;27.90;99.90
20795;DHT22;28087;-33.874;151.240;2023-01-29T02:26:05;28.10;99.90
20795;DHT22;28087;-33.874;151.240;2023-01-29T02:28:48;28.20;99.90
20795;DHT22;28087;-33.874;151.240;2023-01-29T02:31:30;28.40;99.90
20795;DHT22;28087;-33.874;151.240;2023-01-29T02:34:15;28.40;99.90
20795;DHT22;28087;-33.874;151.240;2023-01-29T02:36:59;28.30;99.90
20795;DHT22;28087;-33.874;151.240;2023-01-29T02:39:43;28.40;99.90
20795;DHT22;28087;-33.874;151.240;2023-01-29T02:42:25;28.30;99.90
20795;DHT22;28087;-33.874;151.240;2023-01-29T02:45:10;28.30;99.90
20795;DHT22;28087;-33.874;151.240;2023-01-29T02:47:49;28.30;99.90
20795;DHT22;28087;-33.874;151.240;2023-01-29T02:50:35;28.10;99.90
20795;DHT22;28087;-33.874;151.240;2023-01-29T02:53:15;28.00;99.90
20795;DHT22;28087;-33.874;151.240;2023-01-29T02:55:56;27.90;99.90
20795;DHT22;28087;-33.874;151.240;2023-01-29T02:58:37;27.90;99.90
20795;DHT22;28087;-33.874;151.240;2023-01-29T03:01:24;27.90;99.90
20795;DHT22;28087;-33.874;151.240;2023-01-29T03:04:05;28.00;99.90
20795;DHT22;28087;-33.874;151.240;2023-01-29T03:07:03;28.00;99.90
20795;DHT22;28087;-33.874;151.240;2023-01-29T03:10:36;28.00;99.90
20795;DHT22;28087;-33.874;151.240;2023-01-29T03:13:22;27.90;99.90
20795;DHT22;28087;-33.874;151.240;2023-01-29T03:16:13;27.80;99.90
20795;DHT22;28087;-33.874;151.240;2023-01-29T03:18:55;27.80;99.90
20795;DHT22;28087;-33.874;151.240;2023-01-29T03:21:42;27.80;99.90
20795;DHT22;28087;-33.874;151.240;2023-01-29T03:24:51;27.80;99.90
20795;DHT22;28087;-33.874;151.240;2023-01-29T03:27:58;27.80;99.90
20795;DHT22;28087;-33.874;151.240;2023-01-29T03:31:02;27.70;99.90
20795;DHT22;28087;-33.874;151.240;2023-01-29T03:34:12;27.80;99.90
20795;DHT22;28087;-33.874;151.240;2023-01-29T03:37:22;28.00;99.90
20795;DHT22;28087;-33.874;151.240;2023-01-29T03:40:23;28.00;99.90
20795;DHT22;28087;-33.874;151.240;2023-01-29T03:43:17;28.00;99.90
20795;DHT22;28087;-33.874;151.240;2023-01-29T03:46:06;27.90;99.90
20795;DHT22;28087;-33.874;151.240;2023-01-29T03:48:52;28.00;99.90
20795;DHT22;28087;-33.874;151.240;2023-01-29T03:52:01;28.00;99.90
20795;DHT22;28087;-33.874;151.240;2023-01-29T03:55:16;28.20;99.90
20795;DHT22;28087;-33.874;151.240;2023-01-29T03:58:12;28.20;99.90
20795;DHT22;28087;-33.874;151.240;2023-01-29T04:01:19;28.30;99.90
20795;DHT22;28087;-33.874;151.240;2023-01-29T04:04:10;28.40;99.90
20795;DHT22;28087;-33.874;151.240;2023-01-29T04:07:18;28.50;99.90
20795;DHT22;28087;-33.874;151.240;2023-01-29T04:10:20;28.60;99.90
20795;DHT22;28087;-33.874;151.240;2023-01-29T04:13:11;28.70;99.90
20795;DHT22;28087;-33.874;151.240;2023-01-29T04:16:16;28.70;99.90
20795;DHT22;28087;-33.874;151.240;2023-01-29T04:19:30;28.70;99.90
20795;DHT22;28087;-33.874;151.240;2023-01-29T04:22:11;28.70;99.90
20795;DHT22;28087;-33.874;151.240;2023-01-29T04:24:58;28.70;99.90
20795;DHT22;28087;-33.874;151.240;2023-01-29T04:28:10;28.70;99.90
20795;DHT22;28087;-33.874;151.240;2023-01-29T04:31:07;28.80;99.90
20795;DHT22;28087;-33.874;151.240;2023-01-29T04:33:51;28.90;99.90
20795;DHT22;28087;-33.874;151.240;2023-01-29T04:36:44;28.90;99.90
20795;DHT22;28087;-33.874;151.240;2023-01-29T04:39:42;29.00;99.90
20795;DHT22;28087;-33.874;151.240;2023-01-29T04:42:39;29.10;99.90
20795;DHT22;28087;-33.874;151.240;2023-01-29T04:45:43;29.10;99.90
20795;DHT22;28087;-33.874;151.240;2023-01-29T04:48:57;29.10;99.90
20795;DHT22;28087;-33.874;151.240;2023-01-29T04:51:59;29.00;99.90
20795;DHT22;28087;-33.874;151.240;2023-01-29T04:55:02;28.80;99.90
20795;DHT22;28087;-33.874;151.240;2023-01-29T04:57:55;28.70;99.90
20795;DHT22;28087;-33.874;151.240;2023-01-29T05:00:51;28.70;99.90
20795;DHT22;28087;-33.874;151.240;2023-01-29T05:03:45;28.60;99.90
20795;DHT22;28087;-33.874;151.240;2023-01-29T05:06:50;28.60;99.90
20795;DHT22;28087;-33.874;151.240;2023-01-29T05:09:37;28.60;99.90
20795;DHT22;28087;-33.874;151.240;2023-01-29T05:12:19;28.50;99.90
20795;DHT22;28087;-33.874;151.240;2023-01-29T05:15:21;28.50;99.90
20795;DHT22;28087;-33.874;151.240;2023-01-29T05:18:29;28.40;99.90
20795;DHT22;28087;-33.874;151.240;2023-01-29T05:21:24;28.40;99.90
20795;DHT22;28087;-33.874;151.240;2023-01-29T05:24:10;28.30;99.90
20795;DHT22;28087;-33.874;151.240;2023-01-29T05:26:47;28.10;99.90
20795;DHT22;28087;-33.874;151.240;2023-01-29T05:29:41;28.10;99.90
20795;DHT22;28087;-33.874;151.240;2023-01-29T05:32:21;28.10;99.90
20795;DHT22;28087;-33.874;151.240;2023-01-29T05:34:56;28.10;99.90
20795;DHT22;28087;-33.874;151.240;2023-01-29T05:37:32;28.00;99.90
20795;DHT22;28087;-33.874;151.240;2023-01-29T05:40:09;27.90;99.90
20795;DHT22;28087;-33.874;151.240;2023-01-29T05:42:45;27.90;99.90
20795;DHT22;28087;-33.874;151.240;2023-01-29T05:45:20;27.80;99.90
20795;DHT22;28087;-33.874;151.240;2023-01-29T05:47:58;27.80;99.90
20795;DHT22;28087;-33.874;151.240;2023-01-29T05:50:35;27.70;99.90
20795;DHT22;28087;-33.874;151.240;2023-01-29T05:53:11;27.80;99.90
20795;DHT22;28087;-33.874;151.240;2023-01-29T05:55:47;27.80;99.90
20795;DHT22;28087;-33.874;151.240;2023-01-29T05:58:22;27.80;99.90
20795;DHT22;28087;-33.874;151.240;2023-01-29T06:00:59;27.80;99.90
20795;DHT22;28087;-33.874;151.240;2023-01-29T06:03:43;27.80;99.90
20795;DHT22;28087;-33.874;151.240;2023-01-29T06:06:22;27.90;99.90
20795;DHT22;28087;-33.874;151.240;2023-01-29T06:08:57;27.80;99.90
20795;DHT22;28087;-33.874;151.240;2023-01-29T06:11:34;27.80;99.90
20795;DHT22;28087;-33.874;151.240;2023-01-29T06:14:09;27.80;99.90
20795;DHT22;28087;-33.874;151.240;2023-01-29T06:16:44;27.70;99.90
20795;DHT22;28087;-33.874;151.240;2023-01-29T06:19:21;27.80;99.90
20795;DHT22;28087;-33.874;151.240;2023-01-29T06:21:57;27.80;99.90
20795;DHT22;28087;-33.874;151.240;2023-01-29T06:24:33;27.80;99.90
20795;DHT22;28087;-33.874;151.240;2023-01-29T06:27:08;27.90;99.90
20795;DHT22;28087;-33.874;151.240;2023-01-29T06:29:43;27.90;99.90
20795;DHT22;28087;-33.874;151.240;2023-01-29T06:32:18;27.90;99.90
20795;DHT22;28087;-33.874;151.240;2023-01-29T06:34:55;27.70;99.90
20795;DHT22;28087;-33.874;151.240;2023-01-29T06:37:30;27.70;99.90
20795;DHT22;28087;-33.874;151.240;2023-01-29T06:40:07;27.70;99.90
20795;DHT22;28087;-33.874;151.240;2023-01-29T06:42:43;27.70;99.90
20795;DHT22;28087;-33.874;151.240;2023-01-29T06:45:18;27.80;99.90
20795;DHT22;28087;-33.874;151.240;2023-01-29T06:47:53;27.80;99.90
20795;DHT22;28087;-33.874;151.240;2023-01-29T06:50:33;27.80;99.90
20795;DHT22;28087;-33.874;151.240;2023-01-29T06:53:08;27.80;99.90
20795;DHT22;28087;-33.874;151.240;2023-01-29T06:55:52;27.80;99.90
20795;DHT22;28087;-33.874;151.240;2023-01-29T06:58:29;27.80;99.90
20795;DHT22;28087;-33.874;151.240;2023-01-29T07:01:05;27.90;99.90
20795;DHT22;28087;-33.874;151.240;2023-01-29T07:03:54;27.90;99.90
20795;DHT22;28087;-33.874;151.240;2023-01-29T07:06:33;27.90;99.90
20795;DHT22;28087;-33.874;151.240;2023-01-29T07:09:10;27.90;99.90
20795;DHT22;28087;-33.874;151.240;2023-01-29T07:11:47;27.80;99.90
20795;DHT22;28087;-33.874;151.240;2023-01-29T07:14:22;27.80;99.90
20795;DHT22;28087;-33.874;151.240;2023-01-29T07:16:57;27.80;99.90
20795;DHT22;28087;-33.874;151.240;2023-01-29T07:19:33;27.80;99.90
20795;DHT22;28087;-33.874;151.240;2023-01-29T07:22:10;27.80;99.90
20795;DHT22;28087;-33.874;151.240;2023-01-29T07:24:46;27.80;99.90
20795;DHT22;28087;-33.874;151.240;2023-01-29T07:27:22;27.80;99.90
20795;DHT22;28087;-33.874;151.240;2023-01-29T07:29:57;27.80;99.90
20795;DHT22;28087;-33.874;151.240;2023-01-29T07:32:33;27.80;99.90
20795;DHT22;28087;-33.874;151.240;2023-01-29T07:35:09;27.90;99.90
20795;DHT22;28087;-33.874;151.240;2023-01-29T07:37:49;27.90;99.90
20795;DHT22;28087;-33.874;151.240;2023-01-29T07:40:24;27.80;99.90
20795;DHT22;28087;-33.874;151.240;2023-01-29T07:43:02;27.80;99.90
20795;DHT22;28087;-33.874;151.240;2023-01-29T07:45:38;27.80;99.90
20795;DHT22;28087;-33.874;151.240;2023-01-29T07:48:14;27.90;99.90
20795;DHT22;28087;-33.874;151.240;2023-01-29T07:50:55;27.80;99.90
20795;DHT22;28087;-33.874;151.240;2023-01-29T07:53:33;27.80;99.90
20795;DHT22;28087;-33.874;151.240;2023-01-29T07:56:09;27.80;99.90
20795;DHT22;28087;-33.874;151.240;2023-01-29T07:58:45;27.70;99.90
20795;DHT22;28087;-33.874;151.240;2023-01-29T08:01:21;27.70;99.90
20795;DHT22;28087;-33.874;151.240;2023-01-29T08:03:57;27.70;99.90
20795;DHT22;28087;-33.874;151.240;2023-01-29T08:06:32;27.80;99.90
20795;DHT22;28087;-33.874;151.240;2023-01-29T08:09:10;27.70;99.90
20795;DHT22;28087;-33.874;151.240;2023-01-29T08:11:45;27.70;99.90
20795;DHT22;28087;-33.874;151.240;2023-01-29T08:14:22;27.70;99.90
20795;DHT22;28087;-33.874;151.240;2023-01-29T08:16:57;27.70;99.90
20795;DHT22;28087;-33.874;151.240;2023-01-29T08:19:33;27.70;99.90
20795;DHT22;28087;-33.874;151.240;2023-01-29T08:22:08;27.70;99.90
20795;DHT22;28087;-33.874;151.240;2023-01-29T08:27:29;27.60;99.90
20795;DHT22;28087;-33.874;151.240;2023-01-29T08:30:06;27.70;99.90
20795;DHT22;28087;-33.874;151.240;2023-01-29T08:32:42;27.70;99.90
20795;DHT22;28087;-33.874;151.240;2023-01-29T08:35:18;27.70;99.90
20795;DHT22;28087;-33.874;151.240;2023-01-29T08:37:53;27.70;99.90
20795;DHT22;28087;-33.874;151.240;2023-01-29T08:40:35;27.70;99.90
20795;DHT22;28087;-33.874;151.240;2023-01-29T08:43:11;27.70;99.90
20795;DHT22;28087;-33.874;151.240;2023-01-29T08:45:48;27.70;99.90
20795;DHT22;28087;-33.874;151.240;2023-01-29T08:48:23;27.70;99.90
20795;DHT22;28087;-33.874;151.240;2023-01-29T08:51:00;27.70;99.90
20795;DHT22;28087;-33.874;151.240;2023-01-29T08:53:36;27.60;99.90
20795;DHT22;28087;-33.874;151.240;2023-01-29T08:56:13;27.60;99.90
20795;DHT22;28087;-33.874;151.240;2023-01-29T08:58:50;27.50;99.90
20795;DHT22;28087;-33.874;151.240;2023-01-29T09:01:27;27.60;99.90
20795;DHT22;28087;-33.874;151.240;2023-01-29T09:04:03;27.50;99.90
20795;DHT22;28087;-33.874;151.240;2023-01-29T09:06:38;27.50;99.90
20795;DHT22;28087;-33.874;151.240;2023-01-29T09:09:13;27.40;99.90
